createdAt,value
2018-01-13T00:04:41.666Z,24.40
2018-01-13T00:10:45.190Z,21.73
2018-01-13T00:16:48.707Z,29.70
2018-01-13T00:22:52.307Z,38.77
2018-01-13T00:28:56.683Z,22.40
2018-01-13T00:35:00.972Z,21.17
2018-01-13T00:41:05.271Z,20.33
2018-01-13T00:47:08.758Z,20.33
2018-01-13T00:53:12.287Z,22.63
2018-01-13T00:59:15.754Z,23.30
2018-01-13T01:05:19.229Z,22.40
2018-01-13T01:11:22.692Z,25.77
2018-01-13T01:17:27.039Z,22.73
2018-01-13T01:23:30.905Z,23.00
2018-01-13T01:29:34.387Z,23.70
2018-01-13T01:35:37.868Z,22.50
2018-01-13T01:41:41.338Z,23.43
2018-01-13T01:47:44.803Z,22.80
2018-01-13T01:53:48.300Z,22.17
2018-01-13T01:59:52.536Z,23.50
2018-01-13T02:05:56.870Z,20.30
2018-01-13T02:12:00.372Z,21.70
2018-01-13T02:18:04.071Z,22.77
2018-01-13T02:24:08.320Z,22.93
2018-01-13T02:30:12.192Z,23.70
2018-01-13T02:36:15.755Z,20.20
2018-01-13T02:42:20.007Z,20.90
2018-01-13T02:48:23.773Z,20.37
2018-01-13T02:54:27.713Z,21.53
2018-01-13T03:00:31.205Z,21.33
2018-01-13T03:06:34.690Z,22.57
2018-01-13T03:12:38.161Z,22.67
2018-01-13T03:18:41.638Z,22.70
2018-01-13T03:24:45.145Z,20.47
2018-01-13T03:30:48.671Z,20.00
2018-01-13T03:36:52.936Z,19.77
2018-01-13T03:42:56.936Z,21.50
2018-01-13T03:49:00.561Z,20.60
2018-01-13T03:55:05.233Z,21.53
2018-01-13T04:01:08.719Z,22.23
2018-01-13T04:07:12.194Z,20.30
2018-01-13T04:13:15.673Z,24.00
2018-01-13T04:19:19.141Z,22.20
2018-01-13T04:25:22.622Z,23.80
2018-01-13T04:31:26.958Z,22.10
2018-01-13T04:37:30.454Z,23.03
2018-01-13T04:43:34.925Z,23.63
2018-01-13T04:49:38.401Z,22.60
2018-01-13T04:55:41.990Z,24.30
2018-01-13T05:01:45.534Z,21.60
2018-01-13T05:07:49.032Z,23.40
2018-01-13T05:13:53.302Z,23.43
2018-01-13T05:19:56.802Z,25.40
2018-01-13T05:26:00.376Z,25.00
2018-01-13T05:32:03.913Z,20.47
2018-01-13T05:38:07.421Z,22.43
2018-01-13T05:44:11.749Z,21.23
2018-01-13T05:50:15.229Z,23.17
2018-01-13T05:56:18.715Z,23.67
2018-01-13T06:02:22.948Z,23.30
2018-01-13T06:08:27.025Z,23.87
2018-01-13T06:14:30.508Z,21.50
2018-01-13T06:20:33.969Z,21.47
2018-01-13T06:26:37.494Z,22.43
2018-01-13T06:32:41.039Z,21.30
2018-01-13T06:38:45.375Z,20.60
2018-01-13T06:44:48.989Z,22.53
2018-01-13T06:50:53.658Z,25.70
2018-01-13T06:56:57.146Z,24.50
2018-01-13T07:03:01.401Z,26.60
2018-01-13T07:09:05.687Z,21.70
2018-01-13T07:15:09.936Z,25.03
2018-01-13T07:21:13.428Z,25.90
2018-01-13T07:27:16.980Z,21.93
2018-01-13T07:33:22.117Z,23.20
2018-01-13T07:39:26.319Z,22.23
2018-01-13T07:45:30.584Z,20.30
2018-01-13T07:51:34.200Z,21.10
2018-01-13T07:57:37.676Z,19.17
2018-01-13T08:03:41.182Z,18.50
2018-01-13T08:09:44.670Z,20.03
2018-01-13T08:15:48.207Z,20.80
2018-01-13T08:21:51.670Z,19.73
2018-01-13T08:27:55.589Z,19.97
2018-01-13T08:33:59.136Z,19.83
2018-01-13T08:40:03.376Z,22.43
2018-01-13T08:46:06.845Z,20.40
2018-01-13T08:52:10.390Z,17.00
2018-01-13T08:58:15.397Z,18.40
2018-01-13T09:04:18.922Z,29.53
2018-01-13T09:10:22.496Z,22.73
2018-01-13T09:16:26.138Z,18.00
2018-01-13T09:22:29.762Z,17.00
2018-01-13T09:28:33.243Z,16.47
2018-01-13T09:34:36.723Z,18.53
2018-01-13T09:40:40.270Z,18.63
2018-01-13T09:46:43.753Z,21.23
2018-01-13T09:52:48.015Z,19.23
2018-01-13T09:58:52.422Z,21.90
2018-01-13T10:04:56.395Z,21.23
2018-01-13T10:11:00.001Z,20.27
2018-01-13T10:17:03.509Z,21.83
2018-01-13T10:23:07.024Z,21.00
2018-01-13T10:29:11.315Z,19.13
2018-01-13T10:35:15.569Z,19.53
2018-01-13T10:41:19.187Z,22.07
2018-01-13T10:47:22.922Z,20.27
2018-01-13T10:53:26.415Z,19.97
2018-01-13T10:59:31.562Z,21.37
2018-01-13T11:05:35.051Z,24.43
2018-01-13T11:11:38.722Z,23.60
2018-01-13T11:17:42.242Z,21.07
2018-01-13T11:23:45.975Z,23.60
2018-01-13T11:29:49.460Z,21.47
2018-01-13T11:35:53.059Z,19.80
2018-01-13T11:41:57.192Z,22.97
2018-01-13T11:48:00.673Z,23.70
2018-01-13T11:54:04.137Z,22.00
2018-01-13T12:00:08.376Z,22.00
2018-01-13T12:06:11.860Z,20.83
2018-01-13T12:12:16.090Z,23.67
2018-01-13T12:18:19.559Z,22.30
2018-01-13T12:24:23.026Z,22.50
2018-01-13T12:30:26.902Z,24.40
2018-01-13T12:36:30.589Z,26.10
2018-01-13T12:42:34.114Z,25.03
2018-01-13T12:48:37.766Z,25.80
2018-01-13T12:54:41.239Z,25.70
2018-01-13T13:00:45.758Z,26.93
2018-01-13T13:06:49.213Z,27.80
2018-01-13T13:12:52.826Z,27.80
2018-01-13T13:18:56.337Z,27.13
2018-01-13T13:24:59.934Z,29.47
2018-01-13T13:31:04.243Z,29.03
2018-01-13T13:37:07.710Z,28.17
2018-01-13T13:43:11.344Z,28.07
2018-01-13T13:49:14.926Z,29.10
2018-01-13T13:55:18.455Z,28.37
2018-01-13T14:01:28.593Z,29.60
2018-01-13T14:07:25.845Z,28.80
2018-01-13T14:13:30.065Z,26.97
2018-01-13T14:19:33.540Z,29.33
2018-01-13T14:25:37.877Z,30.40
2018-01-13T14:31:41.341Z,31.20
2018-01-13T14:37:44.814Z,32.13
2018-01-13T14:43:48.279Z,29.13
2018-01-13T14:49:51.751Z,30.80
2018-01-13T14:55:55.998Z,32.60
2018-01-13T15:01:59.591Z,32.13
2018-01-13T15:08:03.056Z,29.87
2018-01-13T15:14:06.561Z,30.30
2018-01-13T15:20:10.031Z,28.47
2018-01-13T15:26:13.510Z,28.10
2018-01-13T15:32:16.978Z,28.27
2018-01-13T15:38:20.475Z,27.67
2018-01-13T15:44:24.255Z,26.33
2018-01-13T15:50:28.701Z,27.17
2018-01-13T15:56:32.259Z,24.50
2018-01-13T16:02:35.738Z,22.60
2018-01-13T16:08:39.352Z,24.33
2018-01-13T16:14:42.868Z,23.10
2018-01-13T16:20:47.104Z,21.97
2018-01-13T16:26:50.608Z,20.00
2018-01-13T16:32:54.215Z,20.40
2018-01-13T16:38:57.720Z,20.60
2018-01-13T16:45:01.201Z,18.87
2018-01-13T16:51:04.700Z,20.83
2018-01-13T16:57:08.214Z,20.87
2018-01-13T17:03:11.706Z,21.47
2018-01-13T17:09:15.197Z,20.20
2018-01-13T17:15:18.728Z,20.07
2018-01-13T17:21:22.417Z,18.83
2018-01-13T17:27:26.145Z,19.07
2018-01-13T17:33:30.435Z,17.80
2018-01-13T17:39:33.884Z,18.20
2018-01-13T17:45:37.381Z,17.17
2018-01-13T17:51:40.934Z,16.17
2018-01-13T17:57:44.482Z,16.77
2018-01-13T18:03:48.131Z,17.67
2018-01-13T18:09:51.664Z,15.50
2018-01-13T18:15:55.340Z,14.00
2018-01-13T18:21:58.972Z,14.50
2018-01-13T18:28:02.657Z,16.20
2018-01-13T18:34:06.114Z,16.13
2018-01-13T18:40:09.579Z,14.90
2018-01-13T18:46:13.002Z,16.77
2018-01-13T18:52:16.481Z,16.67
2018-01-13T18:58:20.025Z,17.83
2018-01-13T19:04:23.997Z,16.47
2018-01-13T19:10:27.505Z,17.83
2018-01-13T19:16:31.943Z,18.90
2018-01-13T19:22:35.435Z,19.20
2018-01-13T19:28:39.671Z,18.10
2018-01-13T19:34:43.149Z,19.03
2018-01-13T19:40:46.772Z,18.00
2018-01-13T19:46:50.398Z,15.67
2018-01-13T19:52:54.096Z,17.67
2018-01-13T19:58:57.628Z,18.20
2018-01-13T20:05:01.120Z,17.03
2018-01-13T20:11:04.891Z,19.70
2018-01-13T20:17:08.555Z,18.90
2018-01-13T20:23:12.778Z,17.50
2018-01-13T20:29:16.304Z,16.40
2018-01-13T20:35:19.753Z,17.43
2018-01-13T20:41:23.232Z,17.57
2018-01-13T20:47:26.907Z,17.63
2018-01-13T20:53:30.410Z,19.17
2018-01-13T20:59:34.716Z,18.30
2018-01-13T21:05:38.171Z,19.87
2018-01-13T21:11:41.687Z,20.27
2018-01-13T21:17:46.054Z,18.97
2018-01-13T21:23:50.321Z,19.47
2018-01-13T21:29:54.134Z,19.50
2018-01-13T21:35:58.078Z,19.70
2018-01-13T21:42:01.729Z,19.87
2018-01-13T21:48:05.295Z,19.57
2018-01-13T21:54:08.788Z,19.20
2018-01-13T22:00:12.256Z,21.17
2018-01-13T22:06:15.887Z,20.77
2018-01-13T22:12:19.481Z,20.37
2018-01-13T22:18:24.070Z,21.00
2018-01-13T22:24:27.602Z,21.77
2018-01-13T22:30:31.100Z,22.00
2018-01-13T22:36:34.647Z,20.00
2018-01-13T22:42:38.146Z,19.00
2018-01-13T22:48:41.616Z,20.80
2018-01-13T22:54:45.155Z,20.03
2018-01-13T23:00:54.318Z,19.27
2018-01-13T23:06:57.803Z,15.77
2018-01-13T23:13:01.392Z,17.13
2018-01-13T23:19:04.871Z,15.27
2018-01-13T23:25:08.370Z,13.90
2018-01-13T23:31:11.877Z,11.67
2018-01-13T23:37:15.447Z,13.50
2018-01-13T23:43:18.937Z,14.10
2018-01-13T23:49:22.403Z,12.60
2018-01-13T23:55:27.098Z,14.07
